• Join FlightAware (Why Join?)
  • Login
  • US Flag 
05:24PM EST


 

Airport Tracker/Info


-or-


 

Live Flight TrackerFlight Track Log ✈ N210FT ✈ 17-May-2013 ✈ KAPF - KFXE

Flight Track Log - Related Links

Times and Time Zones

All times are in EDT time to prevent confusion due to time zone crossing. See the N210FT flight status page for this flight to view local times or setup timezone preferences in your user account.

Time Position Orientation Groundspeed Altitude Reporting Facility
EDT Latitude Longitude Course Direction KTS MPH feet Rate Location/Type
04:15PM 26.1631 -81.1642 88° East 122 140 4,900  Level Miami Center
04:16PM 26.1642 -81.1297 88° East 122 140 4,500  Descending Miami Center
04:17PM 26.1653 -81.0928 88° East 122 140 4,900 240 Climbing Miami Center
04:18PM 26.1664 -81.0556 88° East 122 140 5,000 60 Climbing Miami Center
04:19PM 26.1694 -81.0164 85° East 122 140 5,100 -780 Climbing Miami Center
04:20PM 26.1817 -80.8034 88° East  Level Estimated
04:20PM 26.1706 -80.9817 88° East 122 140 3,500  Level Miami Center
04:21PM 26.1714 -80.9469 88° East 122 140 3,500  Level Miami Center
04:23PM 26.1676 -80.8958 95° East  Level FlightAware Approximate
04:30PM 26.1739 -80.6452 88° East  Level FlightAware Approximate
04:31PM 26.1750 -80.6094 88° East  Level FlightAware Approximate
04:32PM 26.1761 -80.5737 88° East  Level FlightAware Approximate
04:33PM 26.1771 -80.5379 88° East  Level FlightAware Approximate
04:34PM 26.1781 -80.5021 88° East  Level FlightAware Approximate
04:35PM 26.1791 -80.4663 88° East  Level FlightAware Approximate
04:36PM 26.1802 -80.4305 88° East  Level FlightAware Approximate
04:37PM 26.1812 -80.3948 88° East  Level FlightAware Approximate
04:38PM 26.1822 -80.3590 88° East  Level FlightAware Approximate
04:39PM 26.1831 -80.3232 88° East  Level FlightAware Approximate
04:40PM 26.1833 -80.2874 90° East  Level FlightAware Approximate
04:41PM 26.1833 -80.2516 90° East  Level FlightAware Approximate
04:42PM 26.1833 -80.2158 90° East  Level FlightAware Approximate
04:43PM 26.1833 -80.1800 90° East  Level FlightAware Approximate
04:44PM 26.1833 -80.1667 90° East  Level FlightAware Approximate
04:45PM 26.1973 -80.1707 90° East  Level Estimated
04:46PM 26.1973 -80.1707 90° East  Level Estimated
04:47PM 26.1973 -80.1707 90° East  Level Estimated
04:48PM 26.1973 -80.1707 90° East  Level Estimated
04:49PM 26.1973 -80.1707 90° East  Level Estimated
04:50PM 26.1973 -80.1707 90° East  Level Estimated